Time;durP1;ratioP1;P1;durP2;ratioP2;P2;SDS_P1;SDS_P2;PMS_P1;PMS_P2;Temp;Humidity;BMP_temperature;BMP_pressure;BME280_temperature;BME280_humidity;BME280_pressure;Samples;Min_cycle;Max_cycle;Signal;HPM_P1;HPM_P2
2023/03/03 00:00:07;;;;;;;6.60;2.60;;;;;;;;;;5078959;27;20331;-90
2023/03/03 00:02:33;;;;;;;4.38;2.25;;;;;;;;;;5082487;27;20024;-89
2023/03/03 00:05:14;;;;;;;5.18;2.20;;;;;;;;;;5077892;28;20093;-89
2023/03/03 00:07:52;;;;;;;5.50;2.58;;;;;;;;;;5084390;27;20023;-89
2023/03/03 00:10:18;;;;;;;6.97;2.83;;;;;;;;;;5086921;27;20023;-89
2023/03/03 00:12:48;;;;;;;8.23;3.03;;;;;;;;;;5106476;27;20047;-89
2023/03/03 00:15:20;;;;;;;11.48;3.17;;;;;;;;;;5081144;28;20047;-90
2023/03/03 00:17:46;;;;;;;4.50;3.17;;;;;;;;;;5085953;27;20028;-91
2023/03/03 00:20:22;;;;;;;3.25;2.17;;;;;;;;;;5082426;27;20038;-93
2023/03/03 00:22:48;;;;;;;4.82;2.85;;;;;;;;;;5085956;27;20107;-90
2023/03/03 00:25:41;;;;;;;8.80;5.13;;;;;;;;;;5085882;28;20024;-88
2023/03/03 00:28:16;;;;;;;6.60;4.22;;;;;;;;;;5078689;28;20059;-92
2023/03/03 00:30:42;;;;;;;8.27;3.10;;;;;;;;;;5085955;28;20071;-91
2023/03/03 00:33:19;;;;;;;6.60;2.78;;;;;;;;;;5070984;28;20034;-90
2023/03/03 00:35:45;;;;;;;5.65;2.40;;;;;;;;;;5087540;27;20092;-92
2023/03/03 00:38:17;;;;;;;4.28;2.28;;;;;;;;;;5108855;27;20038;-90
2023/03/03 00:40:44;;;;;;;4.10;1.80;;;;;;;;;;5087691;27;20028;-90
2023/03/03 00:43:21;;;;;;;4.93;2.53;;;;;;;;;;5092456;27;20098;-91
2023/03/03 00:45:51;;;;;;;2.38;1.50;;;;;;;;;;5075272;27;20058;-90
2023/03/03 00:48:22;;;;;;;4.68;1.50;;;;;;;;;;5088849;27;20083;-91
2023/03/03 00:50:48;;;;;;;2.67;1.00;;;;;;;;;;5099771;27;20020;-90
2023/03/03 00:53:16;;;;;;;2.33;0.95;;;;;;;;;;5081243;27;20596;-91
2023/03/03 00:55:42;;;;;;;2.97;0.73;;;;;;;;;;5086500;27;20039;-90
2023/03/03 00:58:09;;;;;;;2.17;0.50;;;;;;;;;;5085877;27;20468;-91
2023/03/03 01:00:37;;;;;;;2.30;0.43;;;;;;;;;;5109194;27;20031;-89
2023/03/03 01:03:05;;;;;;;1.13;0.43;;;;;;;;;;5091959;27;20378;-90
2023/03/03 01:05:32;;;;;;;1.17;0.30;;;;;;;;;;5098283;27;20329;-88
2023/03/03 01:07:58;;;;;;;0.70;0.20;;;;;;;;;;5084400;27;20023;-91
2023/03/03 01:10:26;;;;;;;0.47;0.30;;;;;;;;;;5089862;27;20027;-94
2023/03/03 01:12:52;;;;;;;2.67;0.28;;;;;;;;;;5074439;27;20024;-96
2023/03/03 01:15:18;;;;;;;0.95;0.28;;;;;;;;;;5079881;27;20084;-92
2023/03/03 01:17:44;;;;;;;0.77;0.35;;;;;;;;;;5103903;27;20034;-96
2023/03/03 01:20:12;;;;;;;0.50;0.30;;;;;;;;;;5088318;28;20512;-91
2023/03/03 01:22:41;;;;;;;0.30;0.22;;;;;;;;;;5087516;27;20063;-91
2023/03/03 01:25:08;;;;;;;0.28;0.22;;;;;;;;;;5083578;28;20024;-95
2023/03/03 01:27:35;;;;;;;4.57;0.50;;;;;;;;;;5079006;28;20569;-91
2023/03/03 01:30:01;;;;;;;0.80;0.32;;;;;;;;;;5088616;28;20020;-89
2023/03/03 06:14:00;;;;;;;3.53;2.30;;;;;;;;;;5081425;27;20386;-81
2023/03/03 06:16:26;;;;;;;2.95;2.22;;;;;;;;;;5077613;28;20035;-81
2023/03/03 06:18:53;;;;;;;3.97;2.50;;;;;;;;;;5069013;28;20118;-81
2023/03/03 06:21:19;;;;;;;5.25;2.80;;;;;;;;;;5079781;28;20028;-81
2023/03/03 06:23:45;;;;;;;3.55;2.47;;;;;;;;;;5073967;28;20016;-82
2023/03/03 06:26:11;;;;;;;4.35;2.58;;;;;;;;;;5071180;28;20697;-82
2023/03/03 06:28:38;;;;;;;4.05;2.83;;;;;;;;;;5082747;28;20052;-83
2023/03/03 06:31:04;;;;;;;4.13;2.78;;;;;;;;;;5071979;28;20040;-84
2023/03/03 06:33:30;;;;;;;2.65;2.38;;;;;;;;;;5067798;28;20036;-82
2023/03/03 06:35:57;;;;;;;2.72;2.20;;;;;;;;;;5064456;28;20112;-81
2023/03/03 06:38:23;;;;;;;3.00;2.17;;;;;;;;;;5068331;28;20027;-82
2023/03/03 06:40:50;;;;;;;3.90;2.53;;;;;;;;;;5062777;28;20111;-82
2023/03/03 06:43:16;;;;;;;4.57;2.40;;;;;;;;;;5068574;28;20037;-82
2023/03/03 06:45:42;;;;;;;3.95;2.33;;;;;;;;;;5065760;28;20099;-83
2023/03/03 06:48:08;;;;;;;2.20;1.90;;;;;;;;;;5061502;28;20043;-83
2023/03/03 06:50:34;;;;;;;2.85;2.55;;;;;;;;;;5070014;28;20936;-81
2023/03/03 06:53:11;;;;;;;4.45;2.35;;;;;;;;;;5065285;28;20579;-82
2023/03/03 06:55:37;;;;;;;3.35;2.15;;;;;;;;;;5067387;28;20356;-85
2023/03/03 06:58:08;;;;;;;4.20;1.95;;;;;;;;;;5065091;28;20020;-82
2023/03/03 07:00:34;;;;;;;4.00;2.20;;;;;;;;;;5064749;28;20027;-83
2023/03/03 07:03:05;;;;;;;3.10;1.92;;;;;;;;;;5064460;28;20033;-82
2023/03/03 07:05:33;;;;;;;4.23;2.10;;;;;;;;;;5074584;28;20161;-82
2023/03/03 07:07:59;;;;;;;2.28;1.90;;;;;;;;;;5068310;28;20265;-83
2023/03/03 07:10:27;;;;;;;6.28;1.95;;;;;;;;;;5063890;28;20662;-81
2023/03/03 07:12:54;;;;;;;3.67;1.95;;;;;;;;;;5065957;28;20052;-81
2023/03/03 07:15:24;;;;;;;5.05;1.88;;;;;;;;;;5065309;28;20082;-82
2023/03/03 07:17:54;;;;;;;2.13;1.70;;;;;;;;;;5067986;28;20065;-82
2023/03/03 07:20:22;;;;;;;2.75;1.75;;;;;;;;;;5067975;28;20860;-81
2023/03/03 07:22:48;;;;;;;2.72;1.65;;;;;;;;;;5070823;28;20111;-82
2023/03/03 07:25:30;;;;;;;2.40;1.60;;;;;;;;;;5052874;28;20188;-83
2023/03/03 07:27:56;;;;;;;;;;;;;;;;;;5056620;28;20030;-82
2023/03/03 07:30:29;;;;;;;2.63;1.70;;;;;;;;;;5055277;28;19991;-83
2023/03/03 07:32:57;;;;;;;5.30;2.22;;;;;;;;;;5052045;28;20020;-82
2023/03/03 07:35:29;;;;;;;2.70;1.80;;;;;;;;;;5051919;28;20051;-82
2023/03/03 07:37:55;;;;;;;4.00;2.22;;;;;;;;;;5055051;28;20036;-82
2023/03/03 07:40:34;;;;;;;3.05;2.10;;;;;;;;;;5059073;28;20016;-82
2023/03/03 07:43:01;;;;;;;4.15;1.92;;;;;;;;;;5051822;28;20170;-83
2023/03/03 07:45:31;;;;;;;3.60;2.10;;;;;;;;;;5059903;28;20062;-82
2023/03/03 07:48:12;;;;;;;2.42;2.00;;;;;;;;;;5047481;28;20060;-82
2023/03/03 07:50:40;;;;;;;3.42;2.10;;;;;;;;;;5053297;28;20029;-83
2023/03/03 07:53:12;;;;;;;4.15;2.13;;;;;;;;;;5049509;28;20110;-84
2023/03/03 07:55:39;;;;;;;7.10;4.80;;;;;;;;;;5055872;28;20120;-82
2023/03/03 07:58:13;;;;;;;7.35;5.40;;;;;;;;;;5050438;28;20113;-83
2023/03/03 08:00:39;;;;;;;5.32;3.47;;;;;;;;;;5059305;28;20408;-85
2023/03/03 08:03:10;;;;;;;3.78;3.05;;;;;;;;;;5052757;28;20112;-82
2023/03/03 08:05:41;;;;;;;3.53;2.23;;;;;;;;;;5056565;28;20358;-82
2023/03/03 08:08:15;;;;;;;3.35;2.10;;;;;;;;;;5050941;28;20021;-83
2023/03/03 08:10:44;;;;;;;3.85;2.10;;;;;;;;;;5053175;28;20023;-83
2023/03/03 08:13:24;;;;;;;2.80;1.90;;;;;;;;;;5047962;28;20053;-82
2023/03/03 08:19:16;;;;;;;5.15;2.30;;;;;;;;;;5060932;28;20075;-83
2023/03/03 08:22:05;;;;;;;3.05;2.00;;;;;;;;;;5057825;28;20051;-85
2023/03/03 08:24:32;;;;;;;3.60;2.00;;;;;;;;;;5052975;28;20029;-79
2023/03/03 08:27:01;;;;;;;4.03;2.35;;;;;;;;;;5050144;28;20025;-84
2023/03/03 08:29:29;;;;;;;2.75;2.15;;;;;;;;;;5049157;28;20090;-80
2023/03/03 08:32:03;;;;;;;6.78;2.35;;;;;;;;;;5051452;28;20167;-91
2023/03/03 08:34:51;;;;;;;6.40;3.20;;;;;;;;;;5052994;28;20068;-83
2023/03/03 08:37:16;;;;;;;3.63;2.05;;;;;;;;;;5058847;28;20085;-81
2023/03/03 08:39:45;;;;;;;4.50;2.22;;;;;;;;;;5051005;28;20037;-81
2023/03/03 08:42:11;;;;;;;6.72;2.40;;;;;;;;;;5060615;28;20762;-82
2023/03/03 08:44:45;;;;;;;4.90;2.28;;;;;;;;;;5054363;28;20016;-83
2023/03/03 08:47:11;;;;;;;4.03;2.30;;;;;;;;;;5049489;28;20036;-85
2023/03/03 08:49:38;;;;;;;4.68;2.30;;;;;;;;;;5049786;28;20238;-80
2023/03/03 08:52:05;;;;;;;3.95;2.53;;;;;;;;;;5050979;28;20665;-81
2023/03/03 08:54:31;;;;;;;3.35;2.47;;;;;;;;;;5050803;28;20100;-82
2023/03/03 08:56:57;;;;;;;3.75;3.03;;;;;;;;;;5058321;28;20047;-83
2023/03/03 08:59:23;;;;;;;5.50;2.22;;;;;;;;;;5061147;28;20362;-82
2023/03/03 09:01:52;;;;;;;4.65;2.28;;;;;;;;;;5051464;28;20523;-85
2023/03/03 09:04:18;;;;;;;4.07;2.00;;;;;;;;;;5044306;28;20079;-80
2023/03/03 09:06:44;;;;;;;7.65;4.43;;;;;;;;;;5051907;28;20253;-86
2023/03/03 09:09:11;;;;;;;8.25;5.97;;;;;;;;;;5048767;28;20025;-84
2023/03/03 09:11:37;;;;;;;10.68;6.68;;;;;;;;;;5048174;28;20017;-84
2023/03/03 09:14:06;;;;;;;10.15;5.97;;;;;;;;;;5057986;28;20341;-82
2023/03/03 09:16:37;;;;;;;7.68;5.70;;;;;;;;;;5046793;28;20024;-81
2023/03/03 09:19:16;;;;;;;6.38;4.68;;;;;;;;;;5049104;28;20032;-81
2023/03/03 09:21:42;;;;;;;7.70;3.50;;;;;;;;;;5050404;28;20027;-85
2023/03/03 09:24:18;;;;;;;5.55;2.40;;;;;;;;;;5045998;28;20067;-82
2023/03/03 09:26:51;;;;;;;4.57;2.00;;;;;;;;;;5046221;28;20104;-80
2023/03/03 09:29:22;;;;;;;6.18;2.33;;;;;;;;;;5049933;28;20048;-84
2023/03/03 09:31:53;;;;;;;6.55;2.10;;;;;;;;;;5046611;28;20024;-79
2023/03/03 09:34:40;;;;;;;3.05;1.90;;;;;;;;;;5046190;28;20025;-78
2023/03/03 09:37:21;;;;;;;2.85;1.65;;;;;;;;;;5051384;28;20381;-78
2023/03/03 09:39:49;;;;;;;2.95;1.90;;;;;;;;;;5051860;28;20459;-80
2023/03/03 09:42:41;;;;;;;2.97;2.08;;;;;;;;;;5056460;28;20045;-81
2023/03/03 09:45:31;;;;;;;4.78;2.15;;;;;;;;;;5056548;28;20163;-81
2023/03/03 09:48:10;;;;;;;4.68;1.85;;;;;;;;;;5057960;28;20087;-79
2023/03/03 09:50:44;;;;;;;2.80;1.95;;;;;;;;;;5058505;28;20029;-81
2023/03/03 09:53:13;;;;;;;4.97;1.80;;;;;;;;;;5051748;28;20028;-80
2023/03/03 09:55:39;;;;;;;3.70;2.00;;;;;;;;;;5052174;28;20473;-80
2023/03/03 09:58:11;;;;;;;3.72;2.10;;;;;;;;;;5048847;28;20025;-82
2023/03/03 10:00:38;;;;;;;;;;;;;;;;;;5049847;28;20113;-81
2023/03/03 10:03:22;;;;;;;3.05;1.90;;;;;;;;;;5047465;28;19920;-82
2023/03/03 10:05:52;;;;;;;5.05;2.53;;;;;;;;;;5053804;28;20101;-82
2023/03/03 10:08:25;;;;;;;3.17;2.33;;;;;;;;;;5051339;28;20517;-81
2023/03/03 10:10:51;;;;;;;4.05;2.20;;;;;;;;;;5056896;28;20028;-82
2023/03/03 10:13:20;;;;;;;2.70;2.10;;;;;;;;;;5056596;28;20040;-80
2023/03/03 10:15:50;;;;;;;2.63;2.10;;;;;;;;;;5055914;28;20029;-79
2023/03/03 10:18:23;;;;;;;4.70;2.08;;;;;;;;;;5048536;28;20477;-83
2023/03/03 10:21:11;;;;;;;4.28;2.20;;;;;;;;;;5048537;28;20086;-82
2023/03/03 10:23:54;;;;;;;3.15;2.10;;;;;;;;;;5045434;28;20051;-80
2023/03/03 10:26:20;;;;;;;3.75;2.08;;;;;;;;;;5051757;28;20048;-82
2023/03/03 10:29:10;;;;;;;3.30;1.80;;;;;;;;;;5049206;28;20082;-85
2023/03/03 10:31:55;;;;;;;5.63;2.60;;;;;;;;;;5017685;28;20474;-82
2023/03/03 10:34:25;;;;;;;4.03;1.98;;;;;;;;;;5049470;28;20107;-81
2023/03/03 10:37:10;;;;;;;2.13;1.42;;;;;;;;;;5054443;28;20037;-86
2023/03/03 10:39:52;;;;;;;3.67;1.52;;;;;;;;;;5049592;28;20112;-85
2023/03/03 10:42:41;;;;;;;2.03;1.50;;;;;;;;;;5046890;28;20037;-83
2023/03/03 10:45:26;;;;;;;4.80;1.58;;;;;;;;;;5047449;28;20044;-82
2023/03/03 10:48:05;;;;;;;2.80;1.38;;;;;;;;;;5052550;28;20032;-86
2023/03/03 10:50:44;;;;;;;3.13;1.40;;;;;;;;;;5048885;28;20549;-86
2023/03/03 10:53:10;;;;;;;2.88;1.77;;;;;;;;;;5049832;28;20060;-84
2023/03/03 10:56:03;;;;;;;2.58;1.20;;;;;;;;;;5053345;28;20425;-83
2023/03/03 10:58:29;;;;;;;;;;;;;;;;;;5056217;28;20052;-83
2023/03/03 11:01:20;;;;;;;2.28;1.33;;;;;;;;;;5052611;28;20216;-86
2023/03/03 11:03:59;;;;;;;2.25;1.13;;;;;;;;;;5054443;28;20040;-90
2023/03/03 11:06:28;;;;;;;5.63;1.40;;;;;;;;;;5060073;28;20024;-85
2023/03/03 11:09:06;;;;;;;1.65;1.10;;;;;;;;;;5049359;28;20507;-85
2023/03/03 11:11:36;;;;;;;2.03;1.27;;;;;;;;;;5054000;28;20637;-83
2023/03/03 11:14:13;;;;;;;1.52;1.17;;;;;;;;;;5046245;28;20036;-85
2023/03/03 11:16:42;;;;;;;2.97;1.20;;;;;;;;;;5063093;28;20054;-82
2023/03/03 11:19:23;;;;;;;1.33;0.85;;;;;;;;;;5069647;28;20111;-88
2023/03/03 11:22:06;;;;;;;2.85;0.95;;;;;;;;;;5059841;28;20032;-85
2023/03/03 11:24:38;;;;;;;1.00;0.90;;;;;;;;;;5054357;28;20037;-85
2023/03/03 11:27:19;;;;;;;1.20;0.80;;;;;;;;;;5053884;28;20051;-85
2023/03/03 11:30:04;;;;;;;1.00;0.85;;;;;;;;;;5064448;28;20032;-82
2023/03/03 11:32:33;;;;;;;1.60;0.90;;;;;;;;;;5055311;28;20032;-83
2023/03/03 11:35:07;;;;;;;2.10;1.50;;;;;;;;;;5053306;28;20028;-85
2023/03/03 11:37:44;;;;;;;1.60;1.05;;;;;;;;;;5049319;28;20096;-83
2023/03/03 11:40:17;;;;;;;1.35;0.70;;;;;;;;;;5049546;28;20664;-84
2023/03/03 11:43:05;;;;;;;0.90;0.70;;;;;;;;;;5054771;28;20033;-83
2023/03/03 11:45:35;;;;;;;1.00;0.50;;;;;;;;;;5048056;28;20027;-87
2023/03/03 11:48:11;;;;;;;0.73;0.50;;;;;;;;;;5048604;28;20035;-80
2023/03/03 11:50:56;;;;;;;0.85;0.40;;;;;;;;;;5052905;28;20016;-81
2023/03/03 11:53:26;;;;;;;2.20;0.45;;;;;;;;;;5053027;28;20541;-82
2023/03/03 11:56:07;;;;;;;0.30;0.30;;;;;;;;;;5051930;28;20029;-78
2023/03/03 11:59:03;;;;;;;4.18;0.57;;;;;;;;;;5049579;28;20510;-81
2023/03/03 12:01:47;;;;;;;0.85;0.40;;;;;;;;;;5023260;28;20112;-80
2023/03/03 12:04:15;;;;;;;0.52;0.40;;;;;;;;;;5048267;28;20772;-86
2023/03/03 12:06:45;;;;;;;0.52;0.40;;;;;;;;;;5054309;28;20025;-90
2023/03/03 12:09:34;;;;;;;0.30;0.20;;;;;;;;;;5056596;28;20782;-80
2023/03/03 12:12:26;;;;;;;0.43;0.20;;;;;;;;;;5051263;28;20120;-88
2023/03/03 12:14:56;;;;;;;0.30;0.20;;;;;;;;;;5044432;28;20036;-84
2023/03/03 12:17:40;;;;;;;0.63;0.50;;;;;;;;;;5060457;28;20085;-88
2023/03/03 12:20:19;;;;;;;0.25;0.10;;;;;;;;;;5061006;28;20021;-87
2023/03/03 12:22:48;;;;;;;0.20;0.10;;;;;;;;;;5052428;28;20063;-92
2023/03/03 12:25:20;;;;;;;0.43;0.30;;;;;;;;;;5051232;28;20025;-90
2023/03/03 12:28:06;;;;;;;;;;;;;;;;;;;;;
2023/03/03 12:30:48;;;;;;;0.40;0.05;;;;;;;;;;5050929;28;20017;-83
2023/03/03 12:33:20;;;;;;;0.77;0.35;;;;;;;;;;5048078;28;20021;-86
2023/03/03 12:35:47;;;;;;;;;;;;;;;;;;5049194;28;20028;-90
2023/03/03 12:38:31;;;;;;;0.20;0.15;;;;;;;;;;5053704;28;19983;-86
2023/03/03 12:40:57;;;;;;;0.10;0.00;;;;;;;;;;5046409;28;20120;-83
2023/03/03 12:43:31;;;;;;;1.63;0.15;;;;;;;;;;5046717;28;20076;-81
2023/03/03 12:46:13;;;;;;;0.10;0.10;;;;;;;;;;5066122;28;20420;-86
2023/03/03 12:48:43;;;;;;;0.05;0.00;;;;;;;;;;5050818;28;20117;-88
2023/03/03 12:51:28;;;;;;;0.38;0.15;;;;;;;;;;5057768;28;20071;-89
2023/03/03 12:54:24;;;;;;;2.05;0.28;;;;;;;;;;5055939;28;20094;-87
2023/03/03 12:56:56;;;;;;;1.45;0.85;;;;;;;;;;5011586;28;20037;-90
2023/03/03 12:59:52;;;;;;;2.25;0.80;;;;;;;;;;5049768;28;20461;-90
2023/03/03 13:02:46;;;;;;;1.60;0.70;;;;;;;;;;5045303;28;20032;-90
2023/03/03 13:05:21;;;;;;;0.35;0.25;;;;;;;;;;5059818;28;20056;-93
2023/03/03 13:08:30;;;;;;;0.20;0.10;;;;;;;;;;5058733;28;20021;-91
2023/03/03 13:11:04;;;;;;;1.20;0.20;;;;;;;;;;5009105;28;20033;-92
2023/03/03 13:13:35;;;;;;;0.65;0.30;;;;;;;;;;5056630;28;20091;-93
2023/03/03 13:16:11;;;;;;;1.17;0.25;;;;;;;;;;5061153;28;20025;-90
2023/03/03 13:18:57;;;;;;;1.85;0.20;;;;;;;;;;5053588;28;20028;-89
2023/03/03 13:21:27;;;;;;;0.52;0.10;;;;;;;;;;5066003;28;20025;-88
2023/03/03 13:24:05;;;;;;;1.13;0.40;;;;;;;;;;5051928;28;20634;-85
2023/03/03 13:26:43;;;;;;;2.03;0.55;;;;;;;;;;5052033;28;20024;-88
2023/03/03 13:29:52;;;;;;;0.98;0.40;;;;;;;;;;5057873;28;20057;-83
2023/03/03 13:32:22;;;;;;;0.25;0.10;;;;;;;;;;5029918;28;20161;-78
2023/03/03 13:35:23;;;;;;;0.15;0.15;;;;;;;;;;5045251;28;20048;-79
2023/03/03 13:37:53;;;;;;;0.90;0.50;;;;;;;;;;5030079;28;20032;-79
2023/03/03 13:40:41;;;;;;;0.75;0.32;;;;;;;;;;5053496;28;20020;-79
2023/03/03 13:43:34;;;;;;;1.85;0.40;;;;;;;;;;5041349;28;20037;-83
2023/03/03 13:46:00;;;;;;;4.25;1.83;;;;;;;;;;5052658;28;20040;-79
2023/03/03 13:48:27;;;;;;;6.65;2.70;;;;;;;;;;5061447;28;20035;-84
2023/03/03 13:50:56;;;;;;;8.38;4.05;;;;;;;;;;5056755;28;20031;-82
2023/03/03 13:53:26;;;;;;;6.25;2.97;;;;;;;;;;5044811;28;20029;-80
2023/03/03 13:55:58;;;;;;;10.73;5.82;;;;;;;;;;5052414;28;20021;-78
2023/03/03 13:58:55;;;;;;;5.82;3.30;;;;;;;;;;5046505;28;20103;-83
2023/03/03 14:01:23;;;;;;;6.35;4.25;;;;;;;;;;5048392;28;20090;-80
2023/03/03 14:04:05;;;;;;;4.18;3.53;;;;;;;;;;5051938;28;20492;-82
2023/03/03 14:06:31;;;;;;;4.82;4.15;;;;;;;;;;5048952;28;20422;-81
2023/03/03 14:08:58;;;;;;;3.10;1.65;;;;;;;;;;5049966;28;20036;-86
2023/03/03 14:11:36;;;;;;;2.30;1.58;;;;;;;;;;5048827;28;20028;-82
2023/03/03 14:14:40;;;;;;;2.17;1.50;;;;;;;;;;5049339;28;20033;-83
2023/03/03 14:17:15;;;;;;;2.38;1.67;;;;;;;;;;5016837;28;20537;-84
2023/03/03 14:19:48;;;;;;;3.13;1.30;;;;;;;;;;5050579;28;20036;-83
2023/03/03 14:23:11;;;;;;;;;;;;;;;;;;;;;
2023/03/03 14:25:27;;;;;;;2.40;1.45;;;;;;;;;;5055482;28;20021;-88
2023/03/03 14:28:09;;;;;;;1.88;1.20;;;;;;;;;;5070131;28;20423;-90
2023/03/03 14:30:58;;;;;;;5.65;3.63;;;;;;;;;;5056357;28;20032;-80
2023/03/03 14:33:31;;;;;;;9.02;2.60;;;;;;;;;;5046054;28;20440;-86
2023/03/03 14:35:57;;;;;;;4.95;2.05;;;;;;;;;;5058895;28;20024;-88
2023/03/03 14:38:25;;;;;;;4.50;2.08;;;;;;;;;;5065173;28;20397;-85
2023/03/03 14:41:03;;;;;;;3.72;2.08;;;;;;;;;;5055392;28;20074;-89
2023/03/03 14:43:56;;;;;;;5.05;1.92;;;;;;;;;;5055755;28;20095;-91
2023/03/03 14:46:43;;;;;;;4.15;1.85;;;;;;;;;;5057942;28;20263;-90
2023/03/03 14:49:31;;;;;;;5.50;2.67;;;;;;;;;;5056592;28;20050;-79
2023/03/03 14:52:02;;;;;;;3.63;2.08;;;;;;;;;;5066343;28;20032;-89
2023/03/03 14:54:33;;;;;;;4.10;1.67;;;;;;;;;;5065292;28;20388;-90
2023/03/03 14:57:08;;;;;;;3.00;1.88;;;;;;;;;;5071559;28;20025;-83
2023/03/03 14:59:36;;;;;;;3.33;1.60;;;;;;;;;;5068740;28;20036;-88
2023/03/03 15:02:20;;;;;;;4.47;1.58;;;;;;;;;;5070793;28;20017;-92
2023/03/03 15:04:48;;;;;;;8.18;1.80;;;;;;;;;;5054923;28;20033;-83
2023/03/03 15:07:20;;;;;;;3.88;1.40;;;;;;;;;;5063721;28;20033;-85
2023/03/03 15:09:49;;;;;;;4.35;1.85;;;;;;;;;;5062165;28;20028;-81
2023/03/03 15:12:26;;;;;;;2.53;1.40;;;;;;;;;;5054287;28;20057;-84
2023/03/03 15:15:02;;;;;;;4.40;1.55;;;;;;;;;;5059028;28;20111;-88
2023/03/03 15:17:37;;;;;;;3.30;1.10;;;;;;;;;;5057087;28;20099;-87
2023/03/03 15:20:03;;;;;;;4.38;1.40;;;;;;;;;;5052227;28;20120;-84
2023/03/03 15:22:35;;;;;;;3.00;1.35;;;;;;;;;;5052815;28;20545;-81
2023/03/03 15:25:28;;;;;;;3.13;1.23;;;;;;;;;;5057190;28;20028;-83
2023/03/03 15:28:06;;;;;;;4.32;1.25;;;;;;;;;;5046988;28;20496;-84
2023/03/03 15:30:38;;;;;;;3.67;1.40;;;;;;;;;;5055182;28;20468;-83
2023/03/03 15:33:17;;;;;;;4.57;1.60;;;;;;;;;;5053539;28;20028;-81
2023/03/03 15:36:03;;;;;;;4.15;1.65;;;;;;;;;;5055261;28;20536;-83
2023/03/03 15:38:45;;;;;;;3.10;1.30;;;;;;;;;;5052762;28;20089;-84
2023/03/03 15:41:11;;;;;;;;;;;;;;;;;;5045793;28;20036;-84
2023/03/03 15:43:46;;;;;;;4.07;1.40;;;;;;;;;;5049977;28;19931;-86
2023/03/03 15:46:21;;;;;;;5.45;1.52;;;;;;;;;;5046813;28;20497;-83
2023/03/03 15:48:58;;;;;;;5.55;1.30;;;;;;;;;;5056563;28;20457;-82
2023/03/03 15:51:43;;;;;;;2.90;1.30;;;;;;;;;;5049272;28;20094;-86
2023/03/03 15:54:28;;;;;;;4.20;1.23;;;;;;;;;;5054468;28;20028;-85
2023/03/03 15:57:00;;;;;;;7.70;1.67;;;;;;;;;;5047526;28;20032;-84
2023/03/03 15:59:32;;;;;;;;;;;;;;;;;;5057903;28;20025;-86
2023/03/03 16:02:30;;;;;;;4.22;0.90;;;;;;;;;;5067849;28;19916;-86
2023/03/03 16:05:14;;;;;;;2.40;0.90;;;;;;;;;;5046337;28;20044;-86
2023/03/03 16:07:50;;;;;;;3.83;0.90;;;;;;;;;;5056554;28;20028;-86
2023/03/03 16:10:37;;;;;;;2.50;1.15;;;;;;;;;;5061675;28;20024;-83
2023/03/03 16:13:10;;;;;;;3.22;0.88;;;;;;;;;;5054424;28;20052;-79
2023/03/03 16:19:15;;;;;;;4.35;1.17;;;;;;;;;;4981325;28;20042;-84
2023/03/03 16:21:44;;;;;;;1.77;0.90;;;;;;;;;;4985689;28;20128;-82
2023/03/03 16:24:51;;;;;;;2.42;1.33;;;;;;;;;;5045957;28;20043;-83
2023/03/03 16:27:50;;;;;;;;;;;;;;;;;;;;;
2023/03/03 16:30:26;;;;;;;4.25;1.27;;;;;;;;;;5053633;28;20013;-79
2023/03/03 16:33:20;;;;;;;4.82;2.00;;;;;;;;;;5049017;28;20024;-82
2023/03/03 16:35:53;;;;;;;5.93;2.60;;;;;;;;;;5057358;28;20143;-88
2023/03/03 16:38:23;;;;;;;4.60;1.90;;;;;;;;;;5054193;28;20110;-79
2023/03/03 16:40:54;;;;;;;3.50;1.27;;;;;;;;;;5055883;28;20060;-87
2023/03/03 16:43:23;;;;;;;3.13;1.20;;;;;;;;;;5051968;28;20037;-79
2023/03/03 16:45:49;;;;;;;2.50;1.42;;;;;;;;;;5046977;28;20032;-86
2023/03/03 16:48:34;;;;;;;2.53;1.08;;;;;;;;;;5060723;28;20070;-81
2023/03/03 16:51:09;;;;;;;1.58;1.08;;;;;;;;;;5059299;28;20029;-80
2023/03/03 16:53:51;;;;;;;1.90;0.70;;;;;;;;;;5052181;28;20548;-79
2023/03/03 16:56:44;;;;;;;2.47;0.90;;;;;;;;;;5055339;28;20070;-79
2023/03/03 16:59:14;;;;;;;1.40;1.10;;;;;;;;;;5026674;28;20052;-77
2023/03/03 17:01:44;;;;;;;2.50;1.50;;;;;;;;;;5058169;28;20321;-82
2023/03/03 17:04:29;;;;;;;4.13;1.63;;;;;;;;;;5049319;28;20036;-83
2023/03/03 17:06:59;;;;;;;2.85;1.67;;;;;;;;;;5054149;28;20047;-84
2023/03/03 17:09:44;;;;;;;1.67;1.05;;;;;;;;;;5057744;28;20017;-80
2023/03/03 17:12:30;;;;;;;1.95;0.88;;;;;;;;;;5052635;28;20131;-84
2023/03/03 17:15:10;;;;;;;1.55;0.98;;;;;;;;;;5064879;28;20029;-78
2023/03/03 17:17:45;;;;;;;2.78;1.00;;;;;;;;;;5053880;28;20168;-88
2023/03/03 17:20:35;;;;;;;2.75;1.38;;;;;;;;;;5052999;28;20036;-86
2023/03/03 17:23:20;;;;;;;3.03;2.00;;;;;;;;;;5058784;28;20037;-85
2023/03/03 17:26:04;;;;;;;5.40;2.67;;;;;;;;;;5052439;28;20032;-86
2023/03/03 17:28:36;;;;;;;3.40;2.20;;;;;;;;;;5053663;28;20031;-83
2023/03/03 17:31:29;;;;;;;4.00;2.53;;;;;;;;;;5049766;28;20139;-78
2023/03/03 17:34:11;;;;;;;6.75;3.83;;;;;;;;;;5047202;28;20044;-80
2023/03/03 17:36:37;;;;;;;6.20;3.65;;;;;;;;;;5051859;28;20682;-79
2023/03/03 17:39:07;;;;;;;5.95;2.53;;;;;;;;;;5056002;28;20036;-84
2023/03/03 17:41:40;;;;;;;7.13;2.30;;;;;;;;;;5047973;28;20036;-83
2023/03/03 17:44:09;;;;;;;5.25;2.60;;;;;;;;;;5049121;28;20067;-80
2023/03/03 17:46:57;;;;;;;4.35;2.00;;;;;;;;;;5058089;28;20235;-88
2023/03/03 17:49:23;;;;;;;3.88;2.33;;;;;;;;;;5054488;28;20028;-86
2023/03/03 17:51:52;;;;;;;3.75;2.45;;;;;;;;;;5063700;28;20021;-80
2023/03/03 17:54:31;;;;;;;3.67;1.90;;;;;;;;;;5050624;28;20649;-84
2023/03/03 17:57:15;;;;;;;3.33;1.80;;;;;;;;;;5046986;28;20035;-89
2023/03/03 17:59:48;;;;;;;3.08;1.80;;;;;;;;;;5051314;28;20024;-88
2023/03/03 18:02:34;;;;;;;4.45;1.50;;;;;;;;;;5058245;28;20053;-83
2023/03/03 18:05:19;;;;;;;1.73;1.40;;;;;;;;;;5050484;28;20029;-86
2023/03/03 18:08:11;;;;;;;2.10;1.30;;;;;;;;;;5047111;28;20044;-84
2023/03/03 18:11:10;;;;;;;1.45;1.10;;;;;;;;;;5057143;28;20083;-88
2023/03/03 18:13:50;;;;;;;1.50;1.20;;;;;;;;;;5027320;28;20690;-86
2023/03/03 18:16:35;;;;;;;2.80;1.40;;;;;;;;;;5062130;28;20041;-89
2023/03/03 18:19:20;;;;;;;3.25;1.50;;;;;;;;;;5058877;28;20024;-86
2023/03/03 18:21:59;;;;;;;1.98;1.30;;;;;;;;;;5058826;28;20028;-89
2023/03/03 18:24:25;;;;;;;3.28;1.52;;;;;;;;;;5055031;28;20024;-89
2023/03/03 18:26:52;;;;;;;1.50;1.15;;;;;;;;;;5053797;28;20070;-82
2023/03/03 18:29:28;;;;;;;2.00;1.30;;;;;;;;;;5043907;28;20021;-86
2023/03/03 18:31:57;;;;;;;3.03;1.40;;;;;;;;;;5056947;28;20029;-84
2023/03/03 18:34:37;;;;;;;3.33;1.30;;;;;;;;;;5048638;28;20104;-87
2023/03/03 18:37:10;;;;;;;3.22;1.90;;;;;;;;;;5064820;28;20506;-88
2023/03/03 18:39:36;;;;;;;7.00;1.73;;;;;;;;;;5048937;28;20021;-81
2023/03/03 18:42:09;;;;;;;3.85;1.98;;;;;;;;;;5059083;28;20089;-87
2023/03/03 18:44:35;;;;;;;3.08;1.40;;;;;;;;;;5051867;28;20040;-81
2023/03/03 18:47:01;;;;;;;3.03;1.60;;;;;;;;;;5046675;28;20583;-83
2023/03/03 18:49:47;;;;;;;3.42;1.35;;;;;;;;;;5053542;28;20029;-79
2023/03/03 18:52:23;;;;;;;5.75;1.98;;;;;;;;;;5054438;28;20548;-82
2023/03/03 18:55:10;;;;;;;2.72;1.83;;;;;;;;;;5056169;28;20025;-78
2023/03/03 18:57:37;;;;;;;4.60;2.10;;;;;;;;;;4997680;28;20033;-87
2023/03/03 19:00:30;;;;;;;4.50;1.98;;;;;;;;;;5051416;28;20182;-81
2023/03/03 19:02:58;;;;;;;3.70;1.80;;;;;;;;;;5048191;28;20431;-83
2023/03/03 19:05:27;;;;;;;6.07;1.95;;;;;;;;;;5061073;28;20028;-87
2023/03/03 19:08:09;;;;;;;1.88;1.30;;;;;;;;;;5047296;28;20044;-88
2023/03/03 19:10:35;;;;;;;;;;;;;;;;;;5053636;28;20048;-81
2023/03/03 19:13:25;;;;;;;2.20;1.60;;;;;;;;;;5050519;28;19920;-81
2023/03/03 19:15:54;;;;;;;2.67;1.52;;;;;;;;;;5052759;28;20113;-87
2023/03/03 19:18:24;;;;;;;2.15;1.30;;;;;;;;;;5044007;28;20097;-78
2023/03/03 19:21:18;;;;;;;3.63;1.58;;;;;;;;;;5055485;28;20021;-81
2023/03/03 19:23:50;;;;;;;2.33;1.60;;;;;;;;;;5059451;28;20044;-80
2023/03/03 19:26:16;;;;;;;;;;;;;;;;;;5057543;28;20021;-88
2023/03/03 19:28:47;;;;;;;3.97;2.15;;;;;;;;;;5047913;28;20372;-81
2023/03/03 19:31:30;;;;;;;3.35;2.00;;;;;;;;;;5047060;28;20032;-82
2023/03/03 19:33:59;;;;;;;6.38;2.47;;;;;;;;;;5053135;28;20028;-82
2023/03/03 19:36:41;;;;;;;2.70;1.90;;;;;;;;;;5055740;28;20075;-85
2023/03/03 19:39:26;;;;;;;5.10;1.80;;;;;;;;;;5062619;28;20052;-79
2023/03/03 19:42:03;;;;;;;4.45;2.50;;;;;;;;;;5049933;28;20068;-87
2023/03/03 19:44:48;;;;;;;3.30;1.73;;;;;;;;;;5056810;28;20524;-87
2023/03/03 19:47:28;;;;;;;2.83;1.33;;;;;;;;;;5055189;28;20130;-84
2023/03/03 19:49:54;;;;;;;5.22;1.17;;;;;;;;;;5054126;28;20107;-86
2023/03/03 19:52:35;;;;;;;2.80;1.30;;;;;;;;;;5058940;28;20029;-85
2023/03/03 19:55:06;;;;;;;2.40;1.20;;;;;;;;;;5048374;28;20029;-80
2023/03/03 19:57:41;;;;;;;1.98;1.00;;;;;;;;;;5056275;28;20024;-85
2023/03/03 20:00:26;;;;;;;1.35;0.80;;;;;;;;;;5053091;28;20064;-84
2023/03/03 20:03:11;;;;;;;3.25;1.10;;;;;;;;;;5060472;28;20474;-83
2023/03/03 20:05:37;;;;;;;1.35;1.20;;;;;;;;;;5046035;28;20545;-87
2023/03/03 20:08:03;;;;;;;1.95;1.20;;;;;;;;;;5049246;28;20064;-83
2023/03/03 20:10:30;;;;;;;2.95;1.40;;;;;;;;;;5055807;28;20060;-84
2023/03/03 20:13:02;;;;;;;3.63;1.60;;;;;;;;;;5050807;28;20030;-80
2023/03/03 20:15:52;;;;;;;1.92;1.48;;;;;;;;;;5056483;28;20032;-79
2023/03/03 20:18:36;;;;;;;3.03;2.03;;;;;;;;;;5064373;28;20094;-81
2023/03/03 20:21:15;;;;;;;3.55;2.05;;;;;;;;;;5055410;28;20040;-83
2023/03/03 20:23:59;;;;;;;1.83;1.45;;;;;;;;;;5059031;28;20785;-79